Mr. Cass — WDB5593 — position and weather

sailwx.info

Track history (hours):
 
Tides and Currents Weather Stations Pressure Air Temp Water Temp Dewpoint Dewpoint Depression Visibility Wind Speed Wind Dir Waves Ship Positions

Mr. Cass

Owner: Cass Marine Towing LLC, Marrero, LA. More information available from US FCC via Universal Licensing System and Coast Guard Vessel Documentation Center.

Last reported at 2015-Jul-27 06:28 UTC. Time now 2015-Jul-28 17:47 UTC.
Position N 29°57' W 090°02'.

Length 17 m; draft 3.5 m.

Type: Towing. MMSI: 366911310.

Date/timePositionNaut miles runAvg speedWind from/ knotsBaromVisibWave heightAir tempDewpointWater temp
2015-Jul-27 06:28N 29°57' W 090°02'0 0.0
2015-Jul-27 04:29N 29°57' W 090°02'0 0.0
2015-Jul-27 03:18N 29°57' W 090°02'0 0.0
2015-Jul-27 01:24N 29°57' W 090°02'0 0.1
2015-Jul-26 23:30N 29°57' W 090°02'1 1.2
2015-Jul-26 22:32N 29°57' W 090°01'2 1.9
2015-Jul-26 21:18N 29°56' W 090°03'20 1.2
2015-Jul-26 04:22N 29°60' W 090°27'  
2015-Jul-23 13:23N 29°55' W 090°05'1 1.6
2015-Jul-23 12:30N 29°53' W 090°05'1 1.0
2015-Jul-23 11:31N 29°52' W 090°04'3 2.2
2015-Jul-23 10:23N 29°55' W 090°05'3 0.6
2015-Jul-23 05:29N 29°56' W 090°08'2 2.4
2015-Jul-23 04:31N 29°55' W 090°06'3 2.6
2015-Jul-23 03:33N 29°56' W 090°04'2 2.3
2015-Jul-23 02:33N 29°58' W 090°02'0 0.1
2015-Jul-23 01:31N 29°58' W 090°02'0 0.5
2015-Jul-23 00:33N 29°59' W 090°01'0 0.0
2015-Jul-22 23:33N 29°59' W 090°01'0 0.0
2015-Jul-22 22:30N 29°59' W 090°01'0 0.0
2015-Jul-22 21:21N 29°59' W 090°01'  
2015-Jul-18 16:11N 29°57' W 090°02'0 0.0
2015-Jul-18 15:31N 29°57' W 090°02'0 0.0
2015-Jul-18 14:30N 29°57' W 090°02'0 0.0
2015-Jul-18 13:26N 29°57' W 090°02'0 0.0
2015-Jul-18 12:32N 29°57' W 090°02'0 0.0
2015-Jul-18 11:33N 29°57' W 090°02'0 0.0
2015-Jul-18 10:33N 29°57' W 090°02'0 0.0
2015-Jul-18 09:27N 29°57' W 090°02'0 0.0
2015-Jul-18 08:29N 29°57' W 090°02'0 0.0
2015-Jul-18 07:31N 29°57' W 090°02'0 0.0
2015-Jul-18 06:33N 29°57' W 090°02'0 0.0
2015-Jul-18 05:33N 29°57' W 090°02'0 0.0
2015-Jul-18 04:33N 29°57' W 090°02'0 0.0
2015-Jul-18 03:31N 29°57' W 090°02'0 0.0
2015-Jul-18 02:33N 29°57' W 090°02'0 0.0
2015-Jul-18 01:33N 29°57' W 090°02'0 0.0
2015-Jul-18 00:33N 29°57' W 090°02'0 0.0
2015-Jul-17 23:33N 29°57' W 090°02'0 0.0
2015-Jul-17 22:29N 29°57' W 090°02'0 0.0
2015-Jul-17 21:32N 29°57' W 090°02'0 0.0
2015-Jul-17 20:30N 29°57' W 090°02'0 0.0
2015-Jul-17 19:31N 29°57' W 090°02'  
Track history (hours):
 
Tides and Currents Weather Stations Pressure Air Temp Water Temp Dewpoint Dewpoint Depression Visibility Wind Speed Wind Dir Waves Ship Positions

Mr. Cass

Owner: Cass Marine Towing LLC, Marrero, LA. More information available from US FCC via Universal Licensing System and Coast Guard Vessel Documentation Center.

Last reported at 2015-Jul-27 06:28 UTC. Time now 2015-Jul-28 17:47 UTC.
Position N 29°57' W 090°02'.

Length 17 m; draft 3.5 m.

Type: Towing. MMSI: 366911310.

Date/timePositionNaut miles runAvg speedWind from/ knotsBaromVisibWave heightAir tempDewpointWater temp
2015-Jul-27 06:28N 29°57' W 090°02'0 0.0
2015-Jul-27 04:29N 29°57' W 090°02'0 0.0
2015-Jul-27 03:18N 29°57' W 090°02'0 0.0
2015-Jul-27 01:24N 29°57' W 090°02'0 0.1
2015-Jul-26 23:30N 29°57' W 090°02'1 1.2
2015-Jul-26 22:32N 29°57' W 090°01'2 1.9
2015-Jul-26 21:18N 29°56' W 090°03'20 1.2
2015-Jul-26 04:22N 29°60' W 090°27'  
2015-Jul-23 13:23N 29°55' W 090°05'1 1.6
2015-Jul-23 12:30N 29°53' W 090°05'1 1.0
2015-Jul-23 11:31N 29°52' W 090°04'3 2.2
2015-Jul-23 10:23N 29°55' W 090°05'3 0.6
2015-Jul-23 05:29N 29°56' W 090°08'2 2.4
2015-Jul-23 04:31N 29°55' W 090°06'3 2.6
2015-Jul-23 03:33N 29°56' W 090°04'2 2.3
2015-Jul-23 02:33N 29°58' W 090°02'0 0.1
2015-Jul-23 01:31N 29°58' W 090°02'0 0.5
2015-Jul-23 00:33N 29°59' W 090°01'0 0.0
2015-Jul-22 23:33N 29°59' W 090°01'0 0.0
2015-Jul-22 22:30N 29°59' W 090°01'0 0.0
2015-Jul-22 21:21N 29°59' W 090°01'  
2015-Jul-18 16:11N 29°57' W 090°02'0 0.0
2015-Jul-18 15:31N 29°57' W 090°02'0 0.0
2015-Jul-18 14:30N 29°57' W 090°02'0 0.0
2015-Jul-18 13:26N 29°57' W 090°02'0 0.0
2015-Jul-18 12:32N 29°57' W 090°02'0 0.0
2015-Jul-18 11:33N 29°57' W 090°02'0 0.0
2015-Jul-18 10:33N 29°57' W 090°02'0 0.0
2015-Jul-18 09:27N 29°57' W 090°02'0 0.0
2015-Jul-18 08:29N 29°57' W 090°02'0 0.0
2015-Jul-18 07:31N 29°57' W 090°02'0 0.0
2015-Jul-18 06:33N 29°57' W 090°02'0 0.0
2015-Jul-18 05:33N 29°57' W 090°02'0 0.0
2015-Jul-18 04:33N 29°57' W 090°02'0 0.0
2015-Jul-18 03:31N 29°57' W 090°02'0 0.0
2015-Jul-18 02:33N 29°57' W 090°02'0 0.0
2015-Jul-18 01:33N 29°57' W 090°02'0 0.0
2015-Jul-18 00:33N 29°57' W 090°02'0 0.0
2015-Jul-17 23:33N 29°57' W 090°02'0 0.0
2015-Jul-17 22:29N 29°57' W 090°02'0 0.0
2015-Jul-17 21:32N 29°57' W 090°02'0 0.0
2015-Jul-17 20:30N 29°57' W 090°02'0 0.0
2015-Jul-17 19:31N 29°57' W 090°02'  

Dump ship's entire track history